createdAt,value
2022-12-06T00:01:04.483Z,2.00
2022-12-06T00:03:31.263Z,2.00
2022-12-06T00:06:02.416Z,2.00
2022-12-06T00:08:29.109Z,2.00
2022-12-06T00:10:56.004Z,2.00
2022-12-06T00:13:22.754Z,2.00
2022-12-06T00:15:49.476Z,1.90
2022-12-06T00:18:16.153Z,1.90
2022-12-06T00:20:42.818Z,1.90
2022-12-06T00:23:09.510Z,2.00
2022-12-06T00:25:36.207Z,1.90
2022-12-06T00:28:02.950Z,1.90
2022-12-06T00:30:29.744Z,1.90
2022-12-06T00:32:56.662Z,1.90
2022-12-06T00:35:23.343Z,1.90
2022-12-06T00:37:50.117Z,1.90
2022-12-06T00:40:16.817Z,1.90
2022-12-06T00:42:43.536Z,1.80
2022-12-06T00:45:10.362Z,1.90
2022-12-06T00:47:37.163Z,1.80
2022-12-06T00:50:04.219Z,1.80
2022-12-06T00:52:30.915Z,1.80
2022-12-06T00:54:57.601Z,1.80
2022-12-06T00:57:24.264Z,1.80
2022-12-06T00:59:50.962Z,1.80
2022-12-06T01:02:17.670Z,1.80
2022-12-06T01:04:44.409Z,1.80
2022-12-06T01:07:11.098Z,1.80
2022-12-06T01:09:37.849Z,1.80
2022-12-06T01:12:04.634Z,1.70
2022-12-06T01:14:31.295Z,1.80
2022-12-06T01:16:58.257Z,1.80
2022-12-06T01:19:25.141Z,1.80
2022-12-06T01:21:51.839Z,1.80
2022-12-06T01:24:18.519Z,1.80
2022-12-06T01:26:45.239Z,1.80
2022-12-06T01:29:11.965Z,1.90
2022-12-06T01:31:39.427Z,1.90
2022-12-06T01:34:14.728Z,1.90
2022-12-06T01:36:41.483Z,1.90
2022-12-06T01:39:10.636Z,1.90
2022-12-06T01:41:37.729Z,1.90
2022-12-06T01:44:04.875Z,1.90
2022-12-06T01:46:39.364Z,1.90
2022-12-06T01:49:06.100Z,1.90
2022-12-06T01:51:33.090Z,2.00
2022-12-06T01:54:00.283Z,2.00
2022-12-06T01:56:27.252Z,2.00
2022-12-06T01:58:55.735Z,2.00
2022-12-06T02:01:22.964Z,2.00
2022-12-06T02:03:49.845Z,2.00
2022-12-06T02:06:17.376Z,2.00
2022-12-06T02:08:44.868Z,2.00
2022-12-06T02:11:11.519Z,2.00
2022-12-06T02:13:38.516Z,2.00
2022-12-06T02:16:22.647Z,2.10
2022-12-06T02:18:52.814Z,2.00
2022-12-06T02:21:22.512Z,2.10
2022-12-06T02:24:08.266Z,2.10
2022-12-06T02:26:43.130Z,2.10
2022-12-06T02:29:29.400Z,2.10
2022-12-06T02:32:00.455Z,2.10
2022-12-06T02:34:45.598Z,2.10
2022-12-06T02:37:23.645Z,2.10
2022-12-06T02:39:54.973Z,2.10
2022-12-06T02:42:24.491Z,2.10
2022-12-06T02:44:53.604Z,2.10
2022-12-06T02:47:22.586Z,2.10
2022-12-06T02:49:54.885Z,2.10
2022-12-06T02:52:24.262Z,2.10
2022-12-06T02:54:51.977Z,2.10
2022-12-06T02:57:23.464Z,2.10
2022-12-06T02:59:50.738Z,2.10
2022-12-06T03:02:17.475Z,2.00
2022-12-06T03:05:03.140Z,2.00
2022-12-06T03:07:36.157Z,2.00
2022-12-06T03:10:05.943Z,2.00
2022-12-06T03:12:44.876Z,2.00
2022-12-06T03:15:11.748Z,2.00
2022-12-06T03:17:41.692Z,2.00
2022-12-06T03:20:11.027Z,2.00
2022-12-06T03:22:40.202Z,2.00
2022-12-06T03:25:26.448Z,1.90
2022-12-06T03:27:54.848Z,1.90
2022-12-06T03:30:21.569Z,1.90
2022-12-06T03:32:49.161Z,1.90
2022-12-06T03:35:18.302Z,1.90
2022-12-06T03:37:47.557Z,1.90
2022-12-06T03:40:20.139Z,1.90
2022-12-06T03:42:47.312Z,1.80
2022-12-06T03:45:14.287Z,1.80
2022-12-06T03:47:45.978Z,1.80
2022-12-06T03:50:24.071Z,1.80
2022-12-06T03:52:51.629Z,1.80
2022-12-06T03:55:18.392Z,1.80
2022-12-06T03:57:45.013Z,1.80
2022-12-06T04:00:12.186Z,1.80
2022-12-06T04:02:38.894Z,1.80
2022-12-06T04:05:06.055Z,1.80
2022-12-06T04:07:32.905Z,1.80
2022-12-06T04:10:05.496Z,1.80
2022-12-06T04:12:51.376Z,1.80
2022-12-06T04:15:18.481Z,1.80
2022-12-06T04:18:03.923Z,1.70
2022-12-06T04:20:54.302Z,1.80
2022-12-06T04:23:21.264Z,1.70
2022-12-06T04:25:48.024Z,1.70
2022-12-06T04:28:33.586Z,1.70
2022-12-06T04:31:22.296Z,1.70
2022-12-06T04:34:08.257Z,1.80
2022-12-06T04:36:54.100Z,1.70
2022-12-06T04:39:21.299Z,1.70
2022-12-06T04:42:07.127Z,1.70
2022-12-06T04:44:33.842Z,1.70
2022-12-06T04:47:01.016Z,1.70
2022-12-06T04:49:27.719Z,1.70
2022-12-06T04:51:54.879Z,1.70
2022-12-06T04:54:22.065Z,1.70
2022-12-06T04:56:48.725Z,1.70
2022-12-06T04:59:15.453Z,1.70
2022-12-06T05:01:42.125Z,1.80
2022-12-06T05:04:08.896Z,1.70
2022-12-06T05:06:35.666Z,1.80
2022-12-06T05:09:03.209Z,1.80
2022-12-06T05:11:29.860Z,1.80
2022-12-06T05:13:56.592Z,1.80
2022-12-06T05:16:23.295Z,1.70
2022-12-06T05:18:50.012Z,1.70
2022-12-06T05:21:18.320Z,1.80
2022-12-06T05:23:44.976Z,1.70
2022-12-06T05:26:13.835Z,1.70
2022-12-06T05:28:40.856Z,1.70
2022-12-06T05:31:07.716Z,1.70
2022-12-06T05:33:35.374Z,1.70
2022-12-06T05:36:12.832Z,1.70
2022-12-06T05:38:39.713Z,1.70
2022-12-06T05:41:06.409Z,1.70
2022-12-06T05:43:33.231Z,1.70
2022-12-06T05:46:00.089Z,1.70
2022-12-06T05:48:27.926Z,1.60
2022-12-06T05:50:54.642Z,1.70
2022-12-06T05:53:22.057Z,1.70
2022-12-06T05:55:49.359Z,1.60
2022-12-06T05:58:16.659Z,1.70
2022-12-06T06:00:46.320Z,1.70
2022-12-06T06:03:13.155Z,1.70
2022-12-06T06:05:45.427Z,1.70
2022-12-06T06:08:12.181Z,1.70
2022-12-06T06:10:39.160Z,1.70
2022-12-06T06:13:05.826Z,1.70
2022-12-06T06:15:32.516Z,1.70
2022-12-06T06:17:59.157Z,1.70
2022-12-06T06:20:25.832Z,1.70
2022-12-06T06:22:52.461Z,1.70
2022-12-06T06:25:19.127Z,1.70
2022-12-06T06:27:45.850Z,1.70
2022-12-06T06:30:13.064Z,1.70
2022-12-06T06:32:39.911Z,1.70
2022-12-06T06:35:07.029Z,1.70
2022-12-06T06:37:34.078Z,1.70
2022-12-06T06:40:01.449Z,1.70
2022-12-06T06:42:28.401Z,1.70
2022-12-06T06:44:55.531Z,1.70
2022-12-06T06:47:22.869Z,1.60
2022-12-06T06:49:49.587Z,1.70
2022-12-06T06:52:16.317Z,1.60
2022-12-06T06:54:42.947Z,1.70
2022-12-06T06:57:14.286Z,1.60
2022-12-06T06:59:44.369Z,1.60
2022-12-06T07:02:14.684Z,1.70
2022-12-06T07:04:42.367Z,1.70
2022-12-06T07:07:09.300Z,1.60
2022-12-06T07:09:35.944Z,1.60
2022-12-06T07:12:02.967Z,1.60
2022-12-06T07:14:30.011Z,1.70
2022-12-06T07:16:56.754Z,1.60
2022-12-06T07:19:23.458Z,1.70
2022-12-06T07:21:50.770Z,1.60
2022-12-06T07:24:17.567Z,1.70
2022-12-06T07:26:44.255Z,1.70
2022-12-06T07:29:10.940Z,1.70
2022-12-06T07:31:37.672Z,1.70
2022-12-06T07:34:04.544Z,1.70
2022-12-06T07:36:31.852Z,1.70
2022-12-06T07:38:59.330Z,1.70
2022-12-06T07:41:46.268Z,1.80
2022-12-06T07:44:52.035Z,1.80
2022-12-06T07:47:21.119Z,1.80
2022-12-06T07:49:47.863Z,1.80
2022-12-06T07:52:14.571Z,1.80
2022-12-06T07:54:41.512Z,1.80
2022-12-06T07:57:08.257Z,1.90
2022-12-06T07:59:35.748Z,1.90
2022-12-06T08:02:02.574Z,1.90
2022-12-06T08:04:29.375Z,1.90
2022-12-06T08:06:56.343Z,1.90
2022-12-06T08:09:24.004Z,1.90
2022-12-06T08:11:50.680Z,1.90
2022-12-06T08:14:17.395Z,1.90
2022-12-06T08:16:44.082Z,1.90
2022-12-06T08:19:10.723Z,1.90
2022-12-06T08:21:37.384Z,1.80
2022-12-06T08:24:04.262Z,1.80
2022-12-06T08:26:31.199Z,1.80
2022-12-06T08:28:59.745Z,1.80
2022-12-06T08:31:26.644Z,1.80
2022-12-06T08:33:53.339Z,1.80
2022-12-06T08:36:21.551Z,1.80
2022-12-06T08:38:48.495Z,1.80
2022-12-06T08:41:34.144Z,1.80
2022-12-06T08:44:01.156Z,1.80
2022-12-06T08:46:28.577Z,1.90
2022-12-06T08:48:55.626Z,1.90
2022-12-06T08:51:22.680Z,2.00
2022-12-06T08:53:49.472Z,2.00
2022-12-06T08:56:16.233Z,2.00
2022-12-06T08:58:43.154Z,2.00
2022-12-06T09:01:11.077Z,1.90
2022-12-06T09:03:37.866Z,2.00
2022-12-06T09:06:04.661Z,1.90
2022-12-06T09:08:31.365Z,1.90
2022-12-06T09:10:58.100Z,1.90
2022-12-06T09:13:24.877Z,1.90
2022-12-06T09:15:51.554Z,1.90
2022-12-06T09:18:18.520Z,1.90
2022-12-06T09:20:45.360Z,1.90
2022-12-06T09:23:12.123Z,2.00
2022-12-06T09:25:41.047Z,1.90
2022-12-06T09:28:08.092Z,2.00
2022-12-06T09:30:34.815Z,2.00
2022-12-06T09:33:01.871Z,2.00
2022-12-06T09:35:28.923Z,2.00
2022-12-06T09:37:55.641Z,2.00
2022-12-06T09:40:43.119Z,2.10
2022-12-06T09:43:17.733Z,2.10
2022-12-06T09:46:04.677Z,2.00
2022-12-06T09:48:56.355Z,2.00
2022-12-06T09:51:29.176Z,2.10
2022-12-06T09:53:55.776Z,2.00
2022-12-06T09:56:28.707Z,2.00
2022-12-06T09:59:07.823Z,2.00
2022-12-06T10:01:55.721Z,2.00
2022-12-06T10:04:22.593Z,2.00
2022-12-06T10:06:59.180Z,2.00
2022-12-06T10:09:35.635Z,2.00
2022-12-06T10:12:22.768Z,2.00
2022-12-06T10:14:49.445Z,2.00
2022-12-06T10:17:18.114Z,2.00
2022-12-06T10:19:54.396Z,2.00
2022-12-06T10:22:21.228Z,2.00
2022-12-06T10:25:03.446Z,2.10
2022-12-06T10:27:36.998Z,2.10
2022-12-06T10:30:10.620Z,2.10
2022-12-06T10:32:50.151Z,2.10
2022-12-06T10:35:23.053Z,2.10
2022-12-06T10:37:49.798Z,2.20
2022-12-06T10:40:18.471Z,2.20
2022-12-06T10:42:49.586Z,2.20
2022-12-06T10:45:44.803Z,2.20
2022-12-06T10:48:32.550Z,2.30
2022-12-06T10:51:03.060Z,2.30
2022-12-06T10:53:32.659Z,2.30
2022-12-06T10:56:11.941Z,2.30
2022-12-06T10:58:59.926Z,2.30
2022-12-06T11:01:28.485Z,2.30
2022-12-06T11:03:58.516Z,2.30
2022-12-06T11:06:37.701Z,2.30
2022-12-06T11:09:17.527Z,2.30
2022-12-06T11:11:46.735Z,2.30
2022-12-06T11:14:20.941Z,2.20
2022-12-06T11:17:00.129Z,2.20
2022-12-06T11:19:34.064Z,2.20
2022-12-06T11:22:08.014Z,2.20
2022-12-06T11:24:50.557Z,2.20
2022-12-06T11:27:23.931Z,2.20
2022-12-06T11:29:51.177Z,2.20
2022-12-06T11:32:18.760Z,2.20
2022-12-06T11:34:53.030Z,2.20
2022-12-06T11:37:21.314Z,2.10
2022-12-06T11:39:49.756Z,2.10
2022-12-06T11:42:18.637Z,2.10
2022-12-06T11:44:53.360Z,2.10
2022-12-06T11:47:21.990Z,2.10
2022-12-06T11:49:49.479Z,2.10
2022-12-06T11:52:19.914Z,2.10
2022-12-06T11:55:12.890Z,2.10
2022-12-06T11:57:42.780Z,2.10
2022-12-06T12:00:17.095Z,2.10
2022-12-06T12:02:45.057Z,2.10
2022-12-06T12:05:17.985Z,2.20
2022-12-06T12:07:47.047Z,2.20
2022-12-06T12:10:34.402Z,2.10
2022-12-06T12:13:34.504Z,2.10
2022-12-06T12:16:02.732Z,2.20
2022-12-06T12:18:34.485Z,2.10
2022-12-06T12:21:02.360Z,2.10
2022-12-06T12:23:29.104Z,2.10
2022-12-06T12:26:11.650Z,2.10
2022-12-06T12:28:41.212Z,2.10
2022-12-06T12:31:21.243Z,2.10
2022-12-06T12:33:48.163Z,2.10
2022-12-06T12:36:14.928Z,2.20
2022-12-06T12:38:52.504Z,2.10
2022-12-06T12:41:22.121Z,2.20
2022-12-06T12:44:20.490Z,2.20
2022-12-06T12:46:45.694Z,2.20
2022-12-06T12:49:30.912Z,2.20
2022-12-06T12:51:58.419Z,2.20
2022-12-06T12:54:25.578Z,2.20
2022-12-06T12:56:52.850Z,2.20
2022-12-06T12:59:20.873Z,2.20
2022-12-06T13:02:06.659Z,2.20
2022-12-06T13:04:59.806Z,2.20
2022-12-06T13:07:40.555Z,2.20
2022-12-06T13:10:07.255Z,2.20
2022-12-06T13:12:43.345Z,2.20
2022-12-06T13:15:13.348Z,2.20
2022-12-06T13:17:42.437Z,2.20
2022-12-06T13:20:26.709Z,2.20
2022-12-06T13:22:55.593Z,2.20
2022-12-06T13:25:22.448Z,2.20
2022-12-06T13:27:51.822Z,2.20
2022-12-06T13:30:23.047Z,2.20
2022-12-06T13:32:52.652Z,2.20
2022-12-06T13:35:40.147Z,2.20
2022-12-06T13:38:25.966Z,2.20
2022-12-06T13:40:55.012Z,2.20
2022-12-06T13:43:24.422Z,2.20
2022-12-06T13:45:52.228Z,2.20
2022-12-06T13:48:24.965Z,2.20
2022-12-06T13:50:51.901Z,2.20
2022-12-06T13:53:19.247Z,2.20
2022-12-06T13:55:54.647Z,2.10
2022-12-06T13:58:24.345Z,2.10
2022-12-06T14:00:51.204Z,2.10
2022-12-06T14:03:18.249Z,2.10
2022-12-06T14:06:01.551Z,2.00
2022-12-06T14:08:39.072Z,2.00
2022-12-06T14:11:05.901Z,2.00
2022-12-06T14:13:32.934Z,2.00
2022-12-06T14:16:00.657Z,2.00
2022-12-06T14:18:27.865Z,2.00
2022-12-06T14:20:55.838Z,2.00
2022-12-06T14:23:28.325Z,2.00
2022-12-06T14:26:18.389Z,1.90
2022-12-06T14:28:45.789Z,1.90
2022-12-06T14:31:22.776Z,2.00
2022-12-06T14:33:49.682Z,1.90
2022-12-06T14:36:18.168Z,1.90
2022-12-06T14:38:50.857Z,1.90
2022-12-06T14:41:37.331Z,1.90
2022-12-06T14:44:11.606Z,1.90
2022-12-06T14:46:39.221Z,1.90
2022-12-06T14:49:27.239Z,1.90
2022-12-06T14:51:54.109Z,1.80
2022-12-06T14:54:26.581Z,1.80
2022-12-06T14:56:53.749Z,1.80
2022-12-06T14:59:47.322Z,1.80
2022-12-06T15:02:20.886Z,1.80
2022-12-06T15:04:47.767Z,1.80
2022-12-06T15:07:33.580Z,1.80
2022-12-06T15:10:08.066Z,1.80
2022-12-06T15:12:54.975Z,1.80
2022-12-06T15:15:41.394Z,1.80
2022-12-06T15:18:08.165Z,1.80
2022-12-06T15:20:34.963Z,1.80
2022-12-06T15:23:01.686Z,1.80
2022-12-06T15:25:28.368Z,1.70
2022-12-06T15:27:55.044Z,1.70
2022-12-06T15:30:21.751Z,1.70
2022-12-06T15:32:48.600Z,1.70
2022-12-06T15:35:18.562Z,1.70
2022-12-06T15:37:50.357Z,1.70
2022-12-06T15:40:17.652Z,1.70
2022-12-06T15:42:44.391Z,1.70
2022-12-06T15:45:17.161Z,1.70
2022-12-06T15:47:44.935Z,1.70
2022-12-06T15:50:15.399Z,1.70
2022-12-06T15:52:42.110Z,1.70
2022-12-06T15:55:15.405Z,1.70
2022-12-06T15:57:42.130Z,1.70
2022-12-06T16:00:09.392Z,1.70
2022-12-06T16:02:36.151Z,1.80
2022-12-06T16:05:03.112Z,1.70
2022-12-06T16:07:29.976Z,1.80
2022-12-06T16:09:57.283Z,1.80
2022-12-06T16:12:23.973Z,1.70
2022-12-06T16:14:50.589Z,1.80
2022-12-06T16:17:17.337Z,1.80
2022-12-06T16:20:02.815Z,1.80
2022-12-06T16:23:05.103Z,1.70
2022-12-06T16:25:32.813Z,1.80
2022-12-06T16:27:59.464Z,1.70
2022-12-06T16:30:32.804Z,1.80
2022-12-06T16:33:05.786Z,1.80
2022-12-06T16:35:34.353Z,1.80
2022-12-06T16:38:01.035Z,1.80
2022-12-06T16:40:28.946Z,1.80
2022-12-06T16:42:55.657Z,1.80
2022-12-06T16:45:22.319Z,1.80
2022-12-06T16:47:50.227Z,1.80
2022-12-06T16:50:26.803Z,1.80
2022-12-06T16:52:54.129Z,1.80
2022-12-06T16:55:21.019Z,1.80
2022-12-06T16:57:47.974Z,1.80
2022-12-06T17:00:15.175Z,1.80
2022-12-06T17:02:44.400Z,1.80
2022-12-06T17:05:19.229Z,1.80
2022-12-06T17:07:46.068Z,1.80
2022-12-06T17:10:13.448Z,1.80
2022-12-06T17:12:40.442Z,1.80
2022-12-06T17:15:10.402Z,1.80
2022-12-06T17:17:37.218Z,1.80
2022-12-06T17:20:04.385Z,1.80
2022-12-06T17:22:31.039Z,1.90
2022-12-06T17:24:57.794Z,1.90
2022-12-06T17:27:24.459Z,1.80
2022-12-06T17:29:51.171Z,1.90
2022-12-06T17:32:18.232Z,1.80
2022-12-06T17:34:44.935Z,1.90
2022-12-06T17:37:11.659Z,1.90
2022-12-06T17:39:38.578Z,1.90
2022-12-06T17:42:24.545Z,1.90
2022-12-06T17:44:51.723Z,1.90
2022-12-06T17:47:18.805Z,1.90
2022-12-06T17:49:45.559Z,1.90
2022-12-06T17:52:13.034Z,1.90
2022-12-06T17:54:39.821Z,1.90
2022-12-06T17:57:06.881Z,1.90
2022-12-06T17:59:33.653Z,1.90
2022-12-06T18:02:18.005Z,1.90
2022-12-06T18:04:45.738Z,1.90
2022-12-06T18:07:12.939Z,1.90
2022-12-06T18:09:39.802Z,1.90
2022-12-06T18:12:08.356Z,1.90
2022-12-06T18:14:35.326Z,1.90
2022-12-06T18:17:02.745Z,1.90
2022-12-06T18:19:31.005Z,1.90
2022-12-06T18:21:57.779Z,1.90
2022-12-06T18:24:27.888Z,1.90
2022-12-06T18:26:58.682Z,1.90
2022-12-06T18:29:25.446Z,1.90
2022-12-06T18:31:52.577Z,1.90
2022-12-06T18:34:19.743Z,1.90
2022-12-06T18:36:46.717Z,1.90
2022-12-06T18:39:15.841Z,1.90
2022-12-06T18:41:43.847Z,1.90
2022-12-06T18:44:11.638Z,1.90
2022-12-06T18:46:39.190Z,1.90
2022-12-06T18:49:06.315Z,1.90
2022-12-06T18:51:33.900Z,1.90
2022-12-06T18:54:02.298Z,1.90
2022-12-06T18:56:33.021Z,1.90
2022-12-06T18:59:01.032Z,2.00
2022-12-06T19:01:29.211Z,1.90
2022-12-06T19:03:56.851Z,1.90
2022-12-06T19:06:25.159Z,2.00
2022-12-06T19:08:52.668Z,1.90
2022-12-06T19:11:21.419Z,2.00
2022-12-06T19:13:51.967Z,2.00
2022-12-06T19:16:23.053Z,1.90
2022-12-06T19:18:50.896Z,1.90
2022-12-06T19:21:18.232Z,1.90
2022-12-06T19:23:45.149Z,2.00
2022-12-06T19:26:11.893Z,2.00
2022-12-06T19:28:39.556Z,1.90
2022-12-06T19:31:10.576Z,1.90
2022-12-06T19:33:38.553Z,1.90
2022-12-06T19:36:07.057Z,2.00
2022-12-06T19:38:33.878Z,1.90
2022-12-06T19:41:08.248Z,1.90
2022-12-06T19:43:53.737Z,1.90
2022-12-06T19:46:21.953Z,1.90
2022-12-06T19:48:48.979Z,1.90
2022-12-06T19:51:15.793Z,2.00
2022-12-06T19:53:42.543Z,1.90
2022-12-06T19:56:11.222Z,2.00
2022-12-06T19:58:38.276Z,1.90
2022-12-06T20:01:09.469Z,2.00
2022-12-06T20:03:36.247Z,2.00
2022-12-06T20:06:03.961Z,2.00
2022-12-06T20:08:30.699Z,2.00
2022-12-06T20:11:01.183Z,2.00
2022-12-06T20:13:27.917Z,2.00
2022-12-06T20:15:59.290Z,2.00
2022-12-06T20:18:26.035Z,2.00
2022-12-06T20:20:52.699Z,2.00
2022-12-06T20:23:19.567Z,2.00
2022-12-06T20:25:47.475Z,2.00
2022-12-06T20:28:14.508Z,2.00
2022-12-06T20:30:41.229Z,2.00
2022-12-06T20:33:07.977Z,2.00
2022-12-06T20:35:37.896Z,2.00
2022-12-06T20:38:04.605Z,2.00
2022-12-06T20:40:31.779Z,2.00
2022-12-06T20:42:58.633Z,2.00
2022-12-06T20:45:25.307Z,2.00
2022-12-06T20:47:52.113Z,2.00
2022-12-06T20:50:19.107Z,2.00
2022-12-06T20:52:45.832Z,2.00
2022-12-06T20:55:12.564Z,2.00
2022-12-06T20:57:39.322Z,2.10
2022-12-06T21:00:07.900Z,2.00
2022-12-06T21:02:34.842Z,2.00
2022-12-06T21:05:01.631Z,2.10
2022-12-06T21:07:28.410Z,2.10
2022-12-06T21:09:55.291Z,2.10
2022-12-06T21:12:22.391Z,2.10
2022-12-06T21:14:49.088Z,2.10
2022-12-06T21:17:15.852Z,2.10
2022-12-06T21:19:42.901Z,2.10
2022-12-06T21:22:09.780Z,2.10
2022-12-06T21:24:36.499Z,2.10
2022-12-06T21:27:03.180Z,2.10
2022-12-06T21:29:31.141Z,2.10
2022-12-06T21:31:59.902Z,2.10
2022-12-06T21:34:26.715Z,2.10
2022-12-06T21:36:53.399Z,2.10
2022-12-06T21:39:20.188Z,2.10
2022-12-06T21:41:46.947Z,2.10
2022-12-06T21:44:13.737Z,2.10
2022-12-06T21:46:40.492Z,2.10
2022-12-06T21:49:07.244Z,2.10
2022-12-06T21:51:33.970Z,2.10
2022-12-06T21:54:01.388Z,2.10
2022-12-06T21:56:29.249Z,2.10
2022-12-06T21:58:56.127Z,2.10
2022-12-06T22:01:24.425Z,2.10
2022-12-06T22:03:52.843Z,2.10
2022-12-06T22:06:19.813Z,2.10
2022-12-06T22:08:47.820Z,2.10
2022-12-06T22:11:19.086Z,2.10
2022-12-06T22:13:46.500Z,2.10
2022-12-06T22:16:13.850Z,2.10
2022-12-06T22:18:45.617Z,2.00
2022-12-06T22:21:17.555Z,2.00
2022-12-06T22:23:44.316Z,2.00
2022-12-06T22:26:13.352Z,2.00
2022-12-06T22:28:40.080Z,2.00
2022-12-06T22:31:09.671Z,1.90
2022-12-06T22:33:36.585Z,1.90
2022-12-06T22:36:03.676Z,1.90
2022-12-06T22:38:30.507Z,1.80
2022-12-06T22:40:58.036Z,1.80
2022-12-06T22:43:25.317Z,1.70
2022-12-06T22:45:52.209Z,1.60
2022-12-06T22:48:18.883Z,1.60
2022-12-06T22:50:45.772Z,1.50
2022-12-06T22:53:12.693Z,1.40
2022-12-06T22:55:39.331Z,1.30
2022-12-06T22:58:05.973Z,1.30
2022-12-06T23:00:32.631Z,1.20
2022-12-06T23:02:59.357Z,1.20
2022-12-06T23:05:26.088Z,1.10
2022-12-06T23:07:52.847Z,1.10
2022-12-06T23:10:19.621Z,1.00
2022-12-06T23:12:46.295Z,0.90
2022-12-06T23:15:12.949Z,0.90
2022-12-06T23:17:39.607Z,0.80
2022-12-06T23:20:06.863Z,0.70
2022-12-06T23:22:33.515Z,0.70
2022-12-06T23:25:00.209Z,0.60
2022-12-06T23:27:27.013Z,0.50
2022-12-06T23:29:53.726Z,0.50
2022-12-06T23:32:20.739Z,0.40
2022-12-06T23:34:47.698Z,0.40
2022-12-06T23:37:14.404Z,0.40
2022-12-06T23:39:41.239Z,0.40
2022-12-06T23:42:07.944Z,0.40
2022-12-06T23:44:37.018Z,0.40
2022-12-06T23:47:03.785Z,0.40
2022-12-06T23:49:30.710Z,0.40
2022-12-06T23:51:57.534Z,0.40
2022-12-06T23:54:24.189Z,0.40
2022-12-06T23:56:50.830Z,0.40
2022-12-06T23:59:17.878Z,0.30
